sensor_id;sensor_type;location;lat;lon;timestamp;pressure;altitude;pressure_sealevel;temperature;humidity
38227;BME280;24026;49.446;8.576;2023-01-28T00:01:40;101287.38;;;11.88;40.41
38227;BME280;24026;49.446;8.576;2023-01-28T00:04:01;101284.69;;;11.88;40.24
38227;BME280;24026;49.446;8.576;2023-01-28T00:06:21;101283.28;;;11.85;40.32
38227;BME280;24026;49.446;8.576;2023-01-28T00:08:42;101283.88;;;11.87;40.21
38227;BME280;24026;49.446;8.576;2023-01-28T00:11:04;101282.25;;;11.86;40.40
38227;BME280;24026;49.446;8.576;2023-01-28T00:13:25;101288.41;;;11.87;40.53
38227;BME280;24026;49.446;8.576;2023-01-28T00:15:54;101288.84;;;11.84;40.46
38227;BME280;24026;49.446;8.576;2023-01-28T00:18:14;101276.59;;;11.83;40.48
38227;BME280;24026;49.446;8.576;2023-01-28T00:20:35;101274.94;;;11.82;40.54
38227;BME280;24026;49.446;8.576;2023-01-28T00:22:55;101274.72;;;11.83;40.48
38227;BME280;24026;49.446;8.576;2023-01-28T00:25:16;101274.94;;;11.82;40.49
38227;BME280;24026;49.446;8.576;2023-01-28T00:27:36;101275.53;;;11.84;40.56
38227;BME280;24026;49.446;8.576;2023-01-28T00:29:57;101280.50;;;11.80;40.44
38227;BME280;24026;49.446;8.576;2023-01-28T00:32:17;101275.97;;;11.81;40.42
38227;BME280;24026;49.446;8.576;2023-01-28T00:34:37;101278.88;;;11.79;40.57
38227;BME280;24026;49.446;8.576;2023-01-28T00:36:58;101270.66;;;11.81;40.43
38227;BME280;24026;49.446;8.576;2023-01-28T00:39:18;101273.31;;;11.81;40.60
38227;BME280;24026;49.446;8.576;2023-01-28T00:41:39;101271.72;;;11.80;40.56
38227;BME280;24026;49.446;8.576;2023-01-28T00:43:59;101262.66;;;11.81;40.56
38227;BME280;24026;49.446;8.576;2023-01-28T00:46:21;101268.69;;;11.76;40.68
38227;BME280;24026;49.446;8.576;2023-01-28T00:48:43;101269.28;;;11.78;40.72
38227;BME280;24026;49.446;8.576;2023-01-28T00:51:04;101261.50;;;11.77;40.57
38227;BME280;24026;49.446;8.576;2023-01-28T00:53:24;101271.34;;;11.76;40.70
38227;BME280;24026;49.446;8.576;2023-01-28T00:55:45;101268.09;;;11.74;40.84
38227;BME280;24026;49.446;8.576;2023-01-28T00:58:05;101269.94;;;11.74;40.98
38227;BME280;24026;49.446;8.576;2023-01-28T01:00:25;101265.19;;;11.76;40.57
38227;BME280;24026;49.446;8.576;2023-01-28T01:02:46;101268.91;;;11.75;40.58
38227;BME280;24026;49.446;8.576;2023-01-28T01:05:07;101269.50;;;11.77;40.75
38227;BME280;24026;49.446;8.576;2023-01-28T01:07:29;101266.47;;;11.73;40.68
38227;BME280;24026;49.446;8.576;2023-01-28T01:10:03;101275.28;;;11.74;40.79
38227;BME280;24026;49.446;8.576;2023-01-28T01:12:23;101271.22;;;11.71;41.09
38227;BME280;24026;49.446;8.576;2023-01-28T01:14:44;101272.03;;;11.72;40.98
38227;BME280;24026;49.446;8.576;2023-01-28T01:17:04;101277.34;;;11.72;40.93
38227;BME280;24026;49.446;8.576;2023-01-28T01:19:25;101273.88;;;11.71;40.50
38227;BME280;24026;49.446;8.576;2023-01-28T01:21:47;101279.44;;;11.70;41.09
38227;BME280;24026;49.446;8.576;2023-01-28T01:24:09;101286.38;;;11.71;40.77
38227;BME280;24026;49.446;8.576;2023-01-28T01:26:29;101289.25;;;11.69;40.88
38227;BME280;24026;49.446;8.576;2023-01-28T01:28:51;101284.78;;;11.70;41.12
38227;BME280;24026;49.446;8.576;2023-01-28T01:31:13;101285.56;;;11.70;41.08
38227;BME280;24026;49.446;8.576;2023-01-28T01:33:34;101281.50;;;11.67;41.02
38227;BME280;24026;49.446;8.576;2023-01-28T01:35:55;101279.66;;;11.68;40.93
38227;BME280;24026;49.446;8.576;2023-01-28T01:38:16;101281.50;;;11.67;41.20
38227;BME280;24026;49.446;8.576;2023-01-28T01:40:37;101279.88;;;11.66;41.12
38227;BME280;24026;49.446;8.576;2023-01-28T01:42:57;101282.56;;;11.66;41.15
38227;BME280;24026;49.446;8.576;2023-01-28T01:45:17;101279.88;;;11.66;41.37
38227;BME280;24026;49.446;8.576;2023-01-28T01:47:45;101282.78;;;11.65;41.31
38227;BME280;24026;49.446;8.576;2023-01-28T01:50:14;101287.53;;;11.63;41.57
38227;BME280;24026;49.446;8.576;2023-01-28T01:52:37;101295.50;;;11.63;41.25
38227;BME280;24026;49.446;8.576;2023-01-28T01:55:02;101284.03;;;11.62;41.29
38227;BME280;24026;49.446;8.576;2023-01-28T01:57:30;101286.69;;;11.62;41.25
38227;BME280;24026;49.446;8.576;2023-01-28T01:59:51;101288.56;;;11.62;41.25
38227;BME280;24026;49.446;8.576;2023-01-28T02:02:12;101291.22;;;11.62;41.29
38227;BME280;24026;49.446;8.576;2023-01-28T02:04:37;101295.75;;;11.61;41.27
38227;BME280;24026;49.446;8.576;2023-01-28T02:07:00;101295.50;;;11.63;41.31
38227;BME280;24026;49.446;8.576;2023-01-28T02:09:26;101284.47;;;11.59;41.46
38227;BME280;24026;49.446;8.576;2023-01-28T02:11:49;101286.34;;;11.59;41.35
38227;BME280;24026;49.446;8.576;2023-01-28T02:14:11;101289.81;;;11.59;41.55
38227;BME280;24026;49.446;8.576;2023-01-28T02:16:32;101288.78;;;11.60;41.52
38227;BME280;24026;49.446;8.576;2023-01-28T02:18:52;101295.97;;;11.60;41.56
38227;BME280;24026;49.446;8.576;2023-01-28T02:24:36;101284.22;;;11.49;41.82
38227;BME280;24026;49.446;8.576;2023-01-28T02:27:16;101286.66;;;11.50;41.51
38227;BME280;24026;49.446;8.576;2023-01-28T02:30:02;101298.34;;;11.49;41.78
38227;BME280;24026;49.446;8.576;2023-01-28T02:35:51;101301.47;;;11.46;41.81
38227;BME280;24026;49.446;8.576;2023-01-28T02:38:19;101287.22;;;11.53;41.54
38227;BME280;24026;49.446;8.576;2023-01-28T02:40:46;101287.22;;;11.53;41.81
38227;BME280;24026;49.446;8.576;2023-01-28T02:43:34;101288.06;;;11.53;41.86
38227;BME280;24026;49.446;8.576;2023-01-28T02:45:55;101287.47;;;11.51;41.80
38227;BME280;24026;49.446;8.576;2023-01-28T02:48:34;101287.22;;;11.53;41.52
38227;BME280;24026;49.446;8.576;2023-01-28T02:50:57;101286.66;;;11.50;41.87
38227;BME280;24026;49.446;8.576;2023-01-28T02:53:29;101276.22;;;11.49;41.86
38227;BME280;24026;49.446;8.576;2023-01-28T02:56:06;101286.97;;;11.42;41.94
38227;BME280;24026;49.446;8.576;2023-01-28T03:05:50;101291.03;;;11.45;41.95
38227;BME280;24026;49.446;8.576;2023-01-28T03:08:35;101291.03;;;11.45;41.92
38227;BME280;24026;49.446;8.576;2023-01-28T03:11:15;101293.69;;;11.45;41.87
38227;BME280;24026;49.446;8.576;2023-01-28T03:13:54;101298.22;;;11.44;41.98
38227;BME280;24026;49.446;8.576;2023-01-28T03:16:34;101294.72;;;11.44;42.00
38227;BME280;24026;49.446;8.576;2023-01-28T03:19:13;101295.56;;;11.44;41.97
38227;BME280;24026;49.446;8.576;2023-01-28T03:21:52;101290.47;;;11.43;42.07
38227;BME280;24026;49.446;8.576;2023-01-28T03:24:35;101299.69;;;11.40;42.11
38227;BME280;24026;49.446;8.576;2023-01-28T03:30:08;101302.56;;;11.39;42.01
38227;BME280;24026;49.446;8.576;2023-01-28T03:32:49;101298.88;;;11.40;42.10
38227;BME280;24026;49.446;8.576;2023-01-28T03:35:31;101298.88;;;11.40;42.17
38227;BME280;24026;49.446;8.576;2023-01-28T03:38:12;101299.34;;;11.37;41.99
38227;BME280;24026;49.446;8.576;2023-01-28T03:40:50;101296.88;;;11.35;41.97
38227;BME280;24026;49.446;8.576;2023-01-28T03:43:11;101304.44;;;11.38;42.02
38227;BME280;24026;49.446;8.576;2023-01-28T03:45:31;101317.75;;;11.38;42.07
38227;BME280;24026;49.446;8.576;2023-01-28T03:47:52;101316.94;;;11.38;41.89
38227;BME280;24026;49.446;8.576;2023-01-28T03:50:12;101325.16;;;11.36;42.16
38227;BME280;24026;49.446;8.576;2023-01-28T03:52:32;101322.47;;;11.36;42.23
38227;BME280;24026;49.446;8.576;2023-01-28T03:54:53;101331.28;;;11.37;41.99
38227;BME280;24026;49.446;8.576;2023-01-28T03:57:18;101335.78;;;11.36;42.15
38227;BME280;24026;49.446;8.576;2023-01-28T03:59:38;101342.94;;;11.36;42.06
38227;BME280;24026;49.446;8.576;2023-01-28T04:01:59;101340.28;;;11.36;42.06
38227;BME280;24026;49.446;8.576;2023-01-28T04:04:22;101343.78;;;11.36;42.18
38227;BME280;24026;49.446;8.576;2023-01-28T04:06:43;101346.88;;;11.33;42.15
38227;BME280;24026;49.446;8.576;2023-01-28T04:09:03;101342.59;;;11.32;42.08
38227;BME280;24026;49.446;8.576;2023-01-28T04:11:25;101337.84;;;11.34;42.15
38227;BME280;24026;49.446;8.576;2023-01-28T04:13:47;101343.38;;;11.32;42.15
38227;BME280;24026;49.446;8.576;2023-01-28T04:16:08;101340.72;;;11.32;42.23
38227;BME280;24026;49.446;8.576;2023-01-28T04:18:28;101341.78;;;11.31;42.19
38227;BME280;24026;49.446;8.576;2023-01-28T04:20:49;101341.78;;;11.31;42.35
38227;BME280;24026;49.446;8.576;2023-01-28T04:23:09;101340.97;;;11.31;42.37
38227;BME280;24026;49.446;8.576;2023-01-28T04:25:31;101337.47;;;11.30;42.39
38227;BME280;24026;49.446;8.576;2023-01-28T04:27:51;101339.34;;;11.30;42.18
38227;BME280;24026;49.446;8.576;2023-01-28T04:30:12;101338.31;;;11.31;42.28
38227;BME280;24026;49.446;8.576;2023-01-28T04:32:32;101349.19;;;11.29;42.25
38227;BME280;24026;49.446;8.576;2023-01-28T04:34:52;101341.41;;;11.28;42.31
38227;BME280;24026;49.446;8.576;2023-01-28T04:37:13;101340.81;;;11.26;42.23
38227;BME280;24026;49.446;8.576;2023-01-28T04:39:33;101346.13;;;11.26;42.34
38227;BME280;24026;49.446;8.576;2023-01-28T04:41:54;101343.47;;;11.26;42.32
38227;BME280;24026;49.446;8.576;2023-01-28T04:44:14;101346.97;;;11.26;42.30
38227;BME280;24026;49.446;8.576;2023-01-28T04:46:36;101344.28;;;11.26;42.46
38227;BME280;24026;49.446;8.576;2023-01-28T04:48:56;101346.97;;;11.26;42.45
38227;BME280;24026;49.446;8.576;2023-01-28T04:51:17;101347.97;;;11.25;42.29
38227;BME280;24026;49.446;8.576;2023-01-28T04:53:37;101347.97;;;11.25;42.51
38227;BME280;24026;49.446;8.576;2023-01-28T04:55:58;101347.41;;;11.23;42.34
38227;BME280;24026;49.446;8.576;2023-01-28T04:58:18;101353.53;;;11.24;42.40
38227;BME280;24026;49.446;8.576;2023-01-28T05:00:39;101357.03;;;11.24;42.00
38227;BME280;24026;49.446;8.576;2023-01-28T05:02:59;101358.03;;;11.23;42.44
38227;BME280;24026;49.446;8.576;2023-01-28T05:05:20;101354.56;;;11.23;42.58
38227;BME280;24026;49.446;8.576;2023-01-28T05:07:40;101354.78;;;11.21;42.54
38227;BME280;24026;49.446;8.576;2023-01-28T05:10:00;101356.63;;;11.21;42.28
38227;BME280;24026;49.446;8.576;2023-01-28T05:12:21;101349.25;;;11.23;42.50
38227;BME280;24026;49.446;8.576;2023-01-28T05:14:41;101360.91;;;11.22;42.23
38227;BME280;24026;49.446;8.576;2023-01-28T05:17:02;101363.00;;;11.20;42.62
38227;BME280;24026;49.446;8.576;2023-01-28T05:19:22;101367.50;;;11.19;42.40
38227;BME280;24026;49.446;8.576;2023-01-28T05:21:43;101367.28;;;11.21;42.34
38227;BME280;24026;49.446;8.576;2023-01-28T05:24:03;101368.09;;;11.21;42.14
38227;BME280;24026;49.446;8.576;2023-01-28T05:26:24;101368.91;;;11.22;42.40
38227;BME280;24026;49.446;8.576;2023-01-28T05:28:44;101369.94;;;11.21;42.47
38227;BME280;24026;49.446;8.576;2023-01-28T05:31:05;101374.88;;;11.17;42.37
38227;BME280;24026;49.446;8.576;2023-01-28T05:33:26;101381.41;;;11.21;42.18
38227;BME280;24026;49.446;8.576;2023-01-28T05:35:46;101379.19;;;11.18;42.37
38227;BME280;24026;49.446;8.576;2023-01-28T05:38:08;101386.38;;;11.18;42.18
38227;BME280;24026;49.446;8.576;2023-01-28T05:40:29;101392.72;;;11.17;42.23
38227;BME280;24026;49.446;8.576;2023-01-28T05:42:49;101388.19;;;11.17;42.32
38227;BME280;24026;49.446;8.576;2023-01-28T05:45:10;101392.50;;;11.18;42.49
38227;BME280;24026;49.446;8.576;2023-01-28T05:47:32;101399.88;;;11.16;42.38
38227;BME280;24026;49.446;8.576;2023-01-28T05:49:53;101391.91;;;11.16;42.31
38227;BME280;24026;49.446;8.576;2023-01-28T05:52:13;101395.38;;;11.17;42.55
38227;BME280;24026;49.446;8.576;2023-01-28T05:54:33;101400.69;;;11.17;42.27
38227;BME280;24026;49.446;8.576;2023-01-28T05:56:54;101411.56;;;11.15;42.43
38227;BME280;24026;49.446;8.576;2023-01-28T05:59:14;101407.25;;;11.14;42.57
38227;BME280;24026;49.446;8.576;2023-01-28T06:01:35;101407.03;;;11.16;42.41
38227;BME280;24026;49.446;8.576;2023-01-28T06:03:55;101403.56;;;11.15;42.42
38227;BME280;24026;49.446;8.576;2023-01-28T06:06:15;101412.34;;;11.16;42.47
38227;BME280;24026;49.446;8.576;2023-01-28T06:08:36;101410.75;;;11.15;42.48
38227;BME280;24026;49.446;8.576;2023-01-28T06:10:56;101410.97;;;11.13;42.57
38227;BME280;24026;49.446;8.576;2023-01-28T06:13:17;101415.22;;;11.14;42.51
38227;BME280;24026;49.446;8.576;2023-01-28T06:15:37;101419.97;;;11.12;42.44
38227;BME280;24026;49.446;8.576;2023-01-28T06:17:58;101419.97;;;11.12;42.52
38227;BME280;24026;49.446;8.576;2023-01-28T06:20:18;101421.59;;;11.13;42.50
38227;BME280;24026;49.446;8.576;2023-01-28T06:22:39;101420.56;;;11.14;42.31
38227;BME280;24026;49.446;8.576;2023-01-28T06:24:59;101429.00;;;11.11;42.53
38227;BME280;24026;49.446;8.576;2023-01-28T06:27:20;101432.69;;;11.10;42.41
38227;BME280;24026;49.446;8.576;2023-01-28T06:29:40;101429.22;;;11.09;42.41
38227;BME280;24026;49.446;8.576;2023-01-28T06:32:00;101436.16;;;11.10;42.46
38227;BME280;24026;49.446;8.576;2023-01-28T06:34:21;101431.66;;;11.11;42.52
38227;BME280;24026;49.446;8.576;2023-01-28T06:36:43;101443.91;;;11.12;42.17
38227;BME280;24026;49.446;8.576;2023-01-28T06:39:05;101444.13;;;11.10;42.43
38227;BME280;24026;49.446;8.576;2023-01-28T06:41:38;101452.53;;;11.07;42.48
38227;BME280;24026;49.446;8.576;2023-01-28T06:44:01;101455.00;;;11.09;42.48
38227;BME280;24026;49.446;8.576;2023-01-28T06:46:35;101460.09;;;11.10;42.56
38227;BME280;24026;49.446;8.576;2023-01-28T06:48:56;101464.63;;;11.10;42.41
38227;BME280;24026;49.446;8.576;2023-01-28T06:51:16;101468.28;;;11.09;42.58
38227;BME280;24026;49.446;8.576;2023-01-28T06:53:36;101470.97;;;11.09;42.50
38227;BME280;24026;49.446;8.576;2023-01-28T06:55:57;101477.31;;;11.08;42.40
38227;BME280;24026;49.446;8.576;2023-01-28T06:58:17;101474.88;;;11.06;42.70
38227;BME280;24026;49.446;8.576;2023-01-28T07:00:38;101470.38;;;11.07;42.58
38227;BME280;24026;49.446;8.576;2023-01-28T07:03:00;101472.00;;;11.08;42.42
38227;BME280;24026;49.446;8.576;2023-01-28T07:05:22;101473.25;;;11.05;42.55
38227;BME280;24026;49.446;8.576;2023-01-28T07:07:43;101476.94;;;11.04;42.55
38227;BME280;24026;49.446;8.576;2023-01-28T07:10:05;101475.91;;;11.05;42.54
38227;BME280;24026;49.446;8.576;2023-01-28T07:12:25;101472.44;;;11.05;42.50
38227;BME280;24026;49.446;8.576;2023-01-28T07:14:46;101476.13;;;11.04;42.43
38227;BME280;24026;49.446;8.576;2023-01-28T07:17:06;101476.94;;;11.04;42.42
38227;BME280;24026;49.446;8.576;2023-01-28T07:19:26;101474.28;;;11.04;42.40
38227;BME280;24026;49.446;8.576;2023-01-28T07:21:47;101485.97;;;11.03;42.61
38227;BME280;24026;49.446;8.576;2023-01-28T07:24:07;101481.88;;;11.01;42.63
38227;BME280;24026;49.446;8.576;2023-01-28T07:26:27;101488.03;;;11.01;42.48
38227;BME280;24026;49.446;8.576;2023-01-28T07:28:48;101482.09;;;10.99;42.64
38227;BME280;24026;49.446;8.576;2023-01-28T07:31:08;101481.06;;;11.00;42.64
38227;BME280;24026;49.446;8.576;2023-01-28T07:33:29;101492.28;;;11.02;42.61
38227;BME280;24026;49.446;8.576;2023-01-28T07:35:49;101489.84;;;11.01;42.61
38227;BME280;24026;49.446;8.576;2023-01-28T07:38:10;101489.03;;;11.00;42.75
38227;BME280;24026;49.446;8.576;2023-01-28T07:40:31;101492.28;;;11.02;42.43
38227;BME280;24026;49.446;8.576;2023-01-28T07:42:51;101481.06;;;11.00;42.41
38227;BME280;24026;49.446;8.576;2023-01-28T07:45:14;101487.19;;;11.01;42.49
38227;BME280;24026;49.446;8.576;2023-01-28T07:47:37;101488.03;;;11.01;42.62
38227;BME280;24026;49.446;8.576;2023-01-28T07:49:58;101481.28;;;10.99;42.64
38227;BME280;24026;49.446;8.576;2023-01-28T07:52:20;101485.78;;;10.98;42.61
38227;BME280;24026;49.446;8.576;2023-01-28T07:54:41;101491.91;;;10.99;42.70
38227;BME280;24026;49.446;8.576;2023-01-28T07:57:01;101490.91;;;11.00;42.38
38227;BME280;24026;49.446;8.576;2023-01-28T07:59:22;101495.16;;;11.01;42.58
38227;BME280;24026;49.446;8.576;2023-01-28T08:01:42;101496.22;;;11.00;42.32
38227;BME280;24026;49.446;8.576;2023-01-28T08:04:03;101495.38;;;10.99;42.61
38227;BME280;24026;49.446;8.576;2023-01-28T08:06:24;101503.59;;;10.98;42.71
38227;BME280;24026;49.446;8.576;2023-01-28T08:08:46;101500.13;;;10.97;42.56
38227;BME280;24026;49.446;8.576;2023-01-28T08:11:07;101499.91;;;10.99;42.56
38227;BME280;24026;49.446;8.576;2023-01-28T08:13:29;101497.44;;;10.97;42.50
38227;BME280;24026;49.446;8.576;2023-01-28T08:15:54;101504.41;;;10.98;42.42
38227;BME280;24026;49.446;8.576;2023-01-28T08:18:16;101508.69;;;10.99;42.44
38227;BME280;24026;49.446;8.576;2023-01-28T08:20:39;101506.03;;;10.99;42.53
38227;BME280;24026;49.446;8.576;2023-01-28T08:23:11;101510.53;;;10.99;42.44
38227;BME280;24026;49.446;8.576;2023-01-28T08:25:34;101509.53;;;11.00;42.27
38227;BME280;24026;49.446;8.576;2023-01-28T08:27:54;101522.22;;;10.98;42.42
38227;BME280;24026;49.446;8.576;2023-01-28T08:30:15;101518.53;;;10.99;42.85
38227;BME280;24026;49.446;8.576;2023-01-28T08:32:35;101516.66;;;10.99;42.45
38227;BME280;24026;49.446;8.576;2023-01-28T08:34:56;101521.41;;;10.97;42.36
38227;BME280;24026;49.446;8.576;2023-01-28T08:37:17;101514.25;;;10.98;42.53
38227;BME280;24026;49.446;8.576;2023-01-28T08:39:37;101517.94;;;10.97;42.57
38227;BME280;24026;49.446;8.576;2023-01-28T08:41:58;101515.88;;;10.99;42.59
38227;BME280;24026;49.446;8.576;2023-01-28T08:44:19;101525.47;;;11.00;42.55
38227;BME280;24026;49.446;8.576;2023-01-28T08:46:40;101525.69;;;10.98;42.28
38227;BME280;24026;49.446;8.576;2023-01-28T08:49:01;101531.81;;;10.99;42.54
38227;BME280;24026;49.446;8.576;2023-01-28T08:51:21;101524.91;;;10.98;42.39
38227;BME280;24026;49.446;8.576;2023-01-28T08:53:42;101528.34;;;10.98;42.45
38227;BME280;24026;49.446;8.576;2023-01-28T08:56:04;101517.94;;;10.97;42.41
38227;BME280;24026;49.446;8.576;2023-01-28T08:58:25;101525.09;;;10.96;42.30
38227;BME280;24026;49.446;8.576;2023-01-28T09:00:46;101531.03;;;10.98;42.45
38227;BME280;24026;49.446;8.576;2023-01-28T09:03:07;101527.31;;;10.99;42.47
38227;BME280;24026;49.446;8.576;2023-01-28T09:05:28;101531.59;;;11.00;42.40
38227;BME280;24026;49.446;8.576;2023-01-28T09:07:49;101529.16;;;10.99;42.35
38227;BME280;24026;49.446;8.576;2023-01-28T09:10:10;101524.44;;;11.01;42.44
38227;BME280;24026;49.446;8.576;2023-01-28T09:12:31;101530.81;;;11.00;42.33
38227;BME280;24026;49.446;8.576;2023-01-28T09:14:52;101535.91;;;11.01;42.50
38227;BME280;24026;49.446;8.576;2023-01-28T09:17:12;101532.41;;;11.01;42.39
38227;BME280;24026;49.446;8.576;2023-01-28T09:19:33;101540.19;;;11.02;42.37
38227;BME280;24026;49.446;8.576;2023-01-28T09:21:53;101533.47;;;11.00;42.43
38227;BME280;24026;49.446;8.576;2023-01-28T09:24:14;101539.59;;;11.00;42.39
38227;BME280;24026;49.446;8.576;2023-01-28T09:26:34;101538.16;;;11.04;42.32
38227;BME280;24026;49.446;8.576;2023-01-28T09:28:54;101538.56;;;11.01;42.45
38227;BME280;24026;49.446;8.576;2023-01-28T09:31:15;101543.69;;;11.03;42.35
38227;BME280;24026;49.446;8.576;2023-01-28T09:33:37;101541.63;;;11.05;42.31
38227;BME280;24026;49.446;8.576;2023-01-28T09:35:59;101547.72;;;11.05;42.32
38227;BME280;24026;49.446;8.576;2023-01-28T09:38:19;101553.88;;;11.06;42.13
38227;BME280;24026;49.446;8.576;2023-01-28T09:40:42;101556.53;;;11.06;42.22
38227;BME280;24026;49.446;8.576;2023-01-28T09:46:03;101559.19;;;11.06;42.28
38227;BME280;24026;49.446;8.576;2023-01-28T09:48:30;101567.41;;;11.04;42.24
38227;BME280;24026;49.446;8.576;2023-01-28T09:50:53;101565.13;;;11.08;42.35
38227;BME280;24026;49.446;8.576;2023-01-28T09:53:32;101566.94;;;11.07;42.16
38227;BME280;24026;49.446;8.576;2023-01-28T09:56:00;101564.06;;;11.09;42.07
38227;BME280;24026;49.446;8.576;2023-01-28T09:58:21;101573.91;;;11.08;42.27
38227;BME280;24026;49.446;8.576;2023-01-28T10:00:56;101571.25;;;11.08;42.20
38227;BME280;24026;49.446;8.576;2023-01-28T10:06:09;101567.16;;;11.06;42.21
38227;BME280;24026;49.446;8.576;2023-01-28T10:11:52;101576.41;;;11.03;42.34
38227;BME280;24026;49.446;8.576;2023-01-28T10:16:51;101570.66;;;11.06;42.17
38227;BME280;24026;49.446;8.576;2023-01-28T10:24:34;101563.88;;;11.10;41.88
38227;BME280;24026;49.446;8.576;2023-01-28T10:26:56;101573.28;;;11.13;42.12
38227;BME280;24026;49.446;8.576;2023-01-28T10:29:20;101570.63;;;11.13;41.96
38227;BME280;24026;49.446;8.576;2023-01-28T10:31:59;101566.75;;;11.09;42.03
38227;BME280;24026;49.446;8.576;2023-01-28T10:34:22;101571.63;;;11.12;41.95
38227;BME280;24026;49.446;8.576;2023-01-28T10:36:42;101569.56;;;11.14;42.04
38227;BME280;24026;49.446;8.576;2023-01-28T10:39:03;101577.75;;;11.12;42.14
38227;BME280;24026;49.446;8.576;2023-01-28T10:41:25;101567.94;;;11.13;42.31
38227;BME280;24026;49.446;8.576;2023-01-28T10:43:46;101578.16;;;11.16;41.89
38227;BME280;24026;49.446;8.576;2023-01-28T10:46:17;101574.09;;;11.13;41.92
38227;BME280;24026;49.446;8.576;2023-01-28T10:51:04;101577.13;;;11.17;41.78
38227;BME280;24026;49.446;8.576;2023-01-28T10:53:38;101578.38;;;11.15;41.76
38227;BME280;24026;49.446;8.576;2023-01-28T10:56:01;101583.50;;;11.16;41.78
38227;BME280;24026;49.446;8.576;2023-01-28T10:58:27;101581.63;;;11.17;41.78
38227;BME280;24026;49.446;8.576;2023-01-28T11:00:56;101583.69;;;11.15;41.77
38227;BME280;24026;49.446;8.576;2023-01-28T11:03:19;101577.13;;;11.17;41.95
38227;BME280;24026;49.446;8.576;2023-01-28T11:05:49;101589.25;;;11.13;41.87
38227;BME280;24026;49.446;8.576;2023-01-28T11:08:14;101583.50;;;11.16;41.83
38227;BME280;24026;49.446;8.576;2023-01-28T11:10:36;101591.47;;;11.16;41.75
38227;BME280;24026;49.446;8.576;2023-01-28T11:12:59;101584.09;;;11.18;41.93
38227;BME280;24026;49.446;8.576;2023-01-28T11:15:20;101586.16;;;11.16;41.91
38227;BME280;24026;49.446;8.576;2023-01-28T11:17:47;101586.38;;;11.15;41.87
38227;BME280;24026;49.446;8.576;2023-01-28T11:20:23;101582.06;;;11.13;41.75
38227;BME280;24026;49.446;8.576;2023-01-28T11:22:45;101592.06;;;11.18;41.58
38227;BME280;24026;49.446;8.576;2023-01-28T11:25:39;101588.66;;;11.11;41.88
38227;BME280;24026;49.446;8.576;2023-01-28T11:28:01;101582.66;;;11.16;41.83
38227;BME280;24026;49.446;8.576;2023-01-28T11:30:25;101595.75;;;11.17;41.64
38227;BME280;24026;49.446;8.576;2023-01-28T11:32:57;101587.16;;;11.15;41.74
38227;BME280;24026;49.446;8.576;2023-01-28T11:35:28;101593.50;;;11.14;41.81
38227;BME280;24026;49.446;8.576;2023-01-28T11:37:50;101587.16;;;11.15;41.65
38227;BME280;24026;49.446;8.576;2023-01-28T11:40:16;101596.19;;;11.14;41.62
38227;BME280;24026;49.446;8.576;2023-01-28T11:42:39;101591.69;;;11.15;41.69
38227;BME280;24026;49.446;8.576;2023-01-28T11:45:00;101595.59;;;11.12;41.74
38227;BME280;24026;49.446;8.576;2023-01-28T11:53:05;101581.25;;;11.13;41.75
38227;BME280;24026;49.446;8.576;2023-01-28T11:55:41;101583.53;;;11.09;41.92
38227;BME280;24026;49.446;8.576;2023-01-28T12:03:22;101582.91;;;11.07;41.75
38227;BME280;24026;49.446;8.576;2023-01-28T12:05:50;101573.69;;;11.10;41.55
38227;BME280;24026;49.446;8.576;2023-01-28T12:08:25;101578.66;;;11.06;41.76
38227;BME280;24026;49.446;8.576;2023-01-28T12:11:11;101569.41;;;11.09;41.75
38227;BME280;24026;49.446;8.576;2023-01-28T12:13:50;101570.66;;;11.06;41.68
38227;BME280;24026;49.446;8.576;2023-01-28T12:19:02;101557.16;;;11.08;41.92
38227;BME280;24026;49.446;8.576;2023-01-28T12:38:26;101556.31;;;11.07;41.54
38227;BME280;24026;49.446;8.576;2023-01-28T12:41:22;101551.19;;;11.06;41.76
38227;BME280;24026;49.446;8.576;2023-01-28T12:43:47;101559.19;;;11.06;41.56
38227;BME280;24026;49.446;8.576;2023-01-28T12:49:07;101548.31;;;11.07;41.67
38227;BME280;24026;49.446;8.576;2023-01-28T12:51:34;101548.31;;;11.07;41.54
38227;BME280;24026;49.446;8.576;2023-01-28T12:54:19;101551.44;;;11.04;41.59
38227;BME280;24026;49.446;8.576;2023-01-28T12:56:47;101552.03;;;11.06;41.60
38227;BME280;24026;49.446;8.576;2023-01-28T13:01:43;101549.38;;;11.06;41.76
38227;BME280;24026;49.446;8.576;2023-01-28T13:04:30;101547.72;;;11.05;41.67
38227;BME280;24026;49.446;8.576;2023-01-28T13:06:57;101548.53;;;11.06;41.51
38227;BME280;24026;49.446;8.576;2023-01-28T13:09:21;101551.19;;;11.06;41.50
38227;BME280;24026;49.446;8.576;2023-01-28T13:11:44;101552.84;;;11.07;41.53
38227;BME280;24026;49.446;8.576;2023-01-28T13:14:06;101556.31;;;11.07;41.63
38227;BME280;24026;49.446;8.576;2023-01-28T13:16:28;101553.06;;;11.05;41.50
38227;BME280;24026;49.446;8.576;2023-01-28T13:18:49;101554.69;;;11.06;41.64
38227;BME280;24026;49.446;8.576;2023-01-28T13:21:14;101549.38;;;11.06;41.37
38227;BME280;24026;49.446;8.576;2023-01-28T13:28:39;101552.03;;;11.06;41.32
38227;BME280;24026;49.446;8.576;2023-01-28T13:33:37;101550.22;;;11.00;41.37
38227;BME280;24026;49.446;8.576;2023-01-28T13:36:46;101551.66;;;11.03;41.50
38227;BME280;24026;49.446;8.576;2023-01-28T13:38:43;101557.78;;;11.03;41.21
38227;BME280;24026;49.446;8.576;2023-01-28T13:41:04;101562.91;;;11.05;41.29
38227;BME280;24026;49.446;8.576;2023-01-28T13:43:35;101569.44;;;11.02;41.42
38227;BME280;24026;49.446;8.576;2023-01-28T13:45:59;101567.16;;;11.06;41.31
38227;BME280;24026;49.446;8.576;2023-01-28T13:48:29;101575.81;;;11.01;41.19
38227;BME280;24026;49.446;8.576;2023-01-28T13:50:51;101579.88;;;11.04;41.23
38227;BME280;24026;49.446;8.576;2023-01-28T13:54:05;101582.75;;;11.02;41.19